RRL weather

Merrill Municipal Airport
Merrill, Wisconsin, United States

Public forecast

Using degrees Fahrenheit for public forecast. Weather courtesy of forecast.io.

METAR (pilot weather report)

Retrieved 2019/08/26 00:35 UTC (0 seconds ago):

KRRL 260035Z AUTO 13008KT 10SM BKN050 19/13 A3004 RMK AO2 T01900131 TSNO

TAF (pilot weather forecast)

Forecast is more than 12 hours old.

Closest forecast is Wausau Downtown Airport, 16.8 nm (31.1 km) SSE. Retrieved 2019/08/25 00:36 UTC (24 hours ago):

TAF KAUW 252334Z 2600/2624 15009G16KT P6SM SCT050 BKN200 FM260200 13007KT P6SM SCT035 BKN110 FM260600 13005KT P6SM BKN035 BKN090 FM261500 14009G15KT P6SM BKN025 BKN060 PROB30 2615/2621 5SM -SHRA BKN015 FM262100 14010G18KT 4SM -SHRA SCT008 OVC015 TEMPO 2621/2624 2SM -SHRA BKN008